LFRZ

Saint-Nazaire-Montoir Airport

Airport
ICAO code
LFRZ
IATA Code
SNR
Summary
ICAO Region
EUR
ICAO Territory
Location

, Pays de la Loire

Serving
St.-nazaire
Elevation
13 ft
Coordinates
47° 18' 44" N , 2° 8' 57" W
Metar
Observation
LFRZ 280600Z AUTO 31007KT 270V360 7000 -RA FEW016/// BKN040/// BKN048/// ///CB 09/08 Q1013 TEMPO VRB20G40KT 2000 TSRAGS
Station
St-Nazaire
Date/Time
2022-11-28 06:00:00
Wind direction
310°
Wind speed
07 kts
Lowest cloud amount
few clouds
Temperature
9°C
Dew point
8°C
Humidity
93%
QNH
1013 hPa
Weather condition
n/a

Runways

Designator Length Width Surface Rops
8/26 2400 45 ASP No/No

Airport map

Aerial View

SKYbrary Partners:

Safety knowledge contributed by: